sensor_id;sensor_type;location;lat;lon;timestamp;P1;durP1;ratioP1;P2;durP2;ratioP2
16845;SDS011;8539;53.188;8.696;2024-02-14T00:01:14;11.27;;;3.75;;
16845;SDS011;8539;53.188;8.696;2024-02-14T00:03:42;11.95;;;4.43;;
16845;SDS011;8539;53.188;8.696;2024-02-14T00:06:09;11.48;;;5.15;;
16845;SDS011;8539;53.188;8.696;2024-02-14T00:08:38;19.85;;;6.07;;
16845;SDS011;8539;53.188;8.696;2024-02-14T00:11:05;8.48;;;5.35;;
16845;SDS011;8539;53.188;8.696;2024-02-14T00:13:33;14.15;;;6.45;;
16845;SDS011;8539;53.188;8.696;2024-02-14T00:16:01;8.27;;;4.78;;
16845;SDS011;8539;53.188;8.696;2024-02-14T00:18:29;14.88;;;5.85;;
16845;SDS011;8539;53.188;8.696;2024-02-14T00:20:57;15.02;;;5.80;;
16845;SDS011;8539;53.188;8.696;2024-02-14T00:23:24;11.48;;;6.35;;
16845;SDS011;8539;53.188;8.696;2024-02-14T00:25:52;11.50;;;5.47;;
16845;SDS011;8539;53.188;8.696;2024-02-14T00:28:19;7.97;;;5.28;;
16845;SDS011;8539;53.188;8.696;2024-02-14T00:30:46;12.68;;;8.00;;
16845;SDS011;8539;53.188;8.696;2024-02-14T00:33:14;7.93;;;4.93;;
16845;SDS011;8539;53.188;8.696;2024-02-14T00:35:42;9.43;;;5.65;;
16845;SDS011;8539;53.188;8.696;2024-02-14T00:38:11;10.27;;;5.18;;
16845;SDS011;8539;53.188;8.696;2024-02-14T00:40:38;9.02;;;5.45;;
16845;SDS011;8539;53.188;8.696;2024-02-14T00:43:05;8.40;;;5.55;;
16845;SDS011;8539;53.188;8.696;2024-02-14T00:45:33;14.48;;;6.30;;
16845;SDS011;8539;53.188;8.696;2024-02-14T00:48:01;11.63;;;6.28;;
16845;SDS011;8539;53.188;8.696;2024-02-14T00:50:30;12.70;;;5.65;;
16845;SDS011;8539;53.188;8.696;2024-02-14T00:53:00;11.55;;;5.70;;
16845;SDS011;8539;53.188;8.696;2024-02-14T00:55:28;10.35;;;6.05;;
16845;SDS011;8539;53.188;8.696;2024-02-14T00:57:55;8.35;;;5.70;;
16845;SDS011;8539;53.188;8.696;2024-02-14T01:00:22;9.68;;;5.10;;
16845;SDS011;8539;53.188;8.696;2024-02-14T01:02:53;10.57;;;5.50;;
16845;SDS011;8539;53.188;8.696;2024-02-14T01:05:20;9.27;;;4.97;;
16845;SDS011;8539;53.188;8.696;2024-02-14T01:07:48;13.93;;;5.78;;
16845;SDS011;8539;53.188;8.696;2024-02-14T01:12:46;8.90;;;6.50;;
16845;SDS011;8539;53.188;8.696;2024-02-14T01:15:13;7.55;;;6.15;;
16845;SDS011;8539;53.188;8.696;2024-02-14T01:17:41;7.53;;;5.47;;
16845;SDS011;8539;53.188;8.696;2024-02-14T01:20:09;9.65;;;5.97;;
16845;SDS011;8539;53.188;8.696;2024-02-14T01:22:42;14.15;;;6.78;;
16845;SDS011;8539;53.188;8.696;2024-02-14T01:25:21;8.63;;;5.85;;
16845;SDS011;8539;53.188;8.696;2024-02-14T01:27:51;13.70;;;6.28;;
16845;SDS011;8539;53.188;8.696;2024-02-14T01:33:11;12.05;;;6.30;;
16845;SDS011;8539;53.188;8.696;2024-02-14T01:35:40;8.68;;;5.80;;
16845;SDS011;8539;53.188;8.696;2024-02-14T01:38:15;9.02;;;6.57;;
16845;SDS011;8539;53.188;8.696;2024-02-14T01:41:20;8.30;;;6.82;;
16845;SDS011;8539;53.188;8.696;2024-02-14T01:43:57;9.20;;;6.18;;
16845;SDS011;8539;53.188;8.696;2024-02-14T01:46:32;9.68;;;5.82;;
16845;SDS011;8539;53.188;8.696;2024-02-14T01:49:03;9.35;;;6.50;;
16845;SDS011;8539;53.188;8.696;2024-02-14T01:51:40;11.57;;;7.18;;
16845;SDS011;8539;53.188;8.696;2024-02-14T01:54:16;11.63;;;6.65;;
16845;SDS011;8539;53.188;8.696;2024-02-14T01:56:47;9.23;;;6.78;;
16845;SDS011;8539;53.188;8.696;2024-02-14T01:59:20;11.88;;;7.00;;
16845;SDS011;8539;53.188;8.696;2024-02-14T02:01:54;9.65;;;7.13;;
16845;SDS011;8539;53.188;8.696;2024-02-14T02:04:30;11.75;;;6.53;;
16845;SDS011;8539;53.188;8.696;2024-02-14T02:07:01;10.77;;;5.88;;
16845;SDS011;8539;53.188;8.696;2024-02-14T02:09:30;10.90;;;6.90;;
16845;SDS011;8539;53.188;8.696;2024-02-14T02:12:04;12.18;;;6.95;;
16845;SDS011;8539;53.188;8.696;2024-02-14T02:14:37;7.90;;;7.05;;
16845;SDS011;8539;53.188;8.696;2024-02-14T02:17:12;9.95;;;5.93;;
16845;SDS011;8539;53.188;8.696;2024-02-14T02:19:40;7.03;;;6.03;;
16845;SDS011;8539;53.188;8.696;2024-02-14T02:22:17;13.90;;;7.97;;
16845;SDS011;8539;53.188;8.696;2024-02-14T02:24:45;11.55;;;6.82;;
16845;SDS011;8539;53.188;8.696;2024-02-14T02:27:14;8.00;;;6.85;;
16845;SDS011;8539;53.188;8.696;2024-02-14T02:29:43;11.38;;;6.90;;
16845;SDS011;8539;53.188;8.696;2024-02-14T02:34:52;10.23;;;7.57;;
16845;SDS011;8539;53.188;8.696;2024-02-14T02:37:47;13.85;;;8.07;;
16845;SDS011;8539;53.188;8.696;2024-02-14T02:40:32;12.98;;;7.10;;
16845;SDS011;8539;53.188;8.696;2024-02-14T02:43:21;13.20;;;8.15;;
16845;SDS011;8539;53.188;8.696;2024-02-14T02:46:08;12.43;;;8.52;;
16845;SDS011;8539;53.188;8.696;2024-02-14T02:49:05;10.25;;;7.55;;
16845;SDS011;8539;53.188;8.696;2024-02-14T02:57:52;13.93;;;8.35;;
16845;SDS011;8539;53.188;8.696;2024-02-14T03:00:25;12.85;;;9.77;;
16845;SDS011;8539;53.188;8.696;2024-02-14T03:02:55;18.60;;;9.05;;
16845;SDS011;8539;53.188;8.696;2024-02-14T03:05:29;13.25;;;8.63;;
16845;SDS011;8539;53.188;8.696;2024-02-14T03:08:00;18.42;;;9.15;;
16845;SDS011;8539;53.188;8.696;2024-02-14T03:10:34;14.48;;;8.95;;
16845;SDS011;8539;53.188;8.696;2024-02-14T03:13:01;15.98;;;9.00;;
16845;SDS011;8539;53.188;8.696;2024-02-14T03:15:29;18.02;;;10.52;;
16845;SDS011;8539;53.188;8.696;2024-02-14T03:17:56;14.65;;;9.93;;
16845;SDS011;8539;53.188;8.696;2024-02-14T03:20:23;17.90;;;10.05;;
16845;SDS011;8539;53.188;8.696;2024-02-14T03:22:58;17.00;;;11.88;;
16845;SDS011;8539;53.188;8.696;2024-02-14T03:25:28;15.68;;;11.18;;
16845;SDS011;8539;53.188;8.696;2024-02-14T03:27:58;18.75;;;11.05;;
16845;SDS011;8539;53.188;8.696;2024-02-14T03:30:25;19.15;;;11.13;;
16845;SDS011;8539;53.188;8.696;2024-02-14T03:32:54;17.80;;;11.60;;
16845;SDS011;8539;53.188;8.696;2024-02-14T03:35:42;13.93;;;10.80;;
16845;SDS011;8539;53.188;8.696;2024-02-14T03:38:10;16.67;;;11.38;;
16845;SDS011;8539;53.188;8.696;2024-02-14T03:40:49;13.32;;;11.27;;
16845;SDS011;8539;53.188;8.696;2024-02-14T03:45:59;18.85;;;11.38;;
16845;SDS011;8539;53.188;8.696;2024-02-14T03:48:46;12.80;;;10.32;;
16845;SDS011;8539;53.188;8.696;2024-02-14T03:51:23;17.10;;;10.60;;
16845;SDS011;8539;53.188;8.696;2024-02-14T03:53:56;16.42;;;11.35;;
16845;SDS011;8539;53.188;8.696;2024-02-14T03:56:25;16.73;;;10.95;;
16845;SDS011;8539;53.188;8.696;2024-02-14T03:58:57;16.33;;;11.20;;
16845;SDS011;8539;53.188;8.696;2024-02-14T04:01:25;16.85;;;10.70;;
16845;SDS011;8539;53.188;8.696;2024-02-14T04:04:07;16.13;;;13.10;;
16845;SDS011;8539;53.188;8.696;2024-02-14T04:06:42;18.95;;;11.43;;
16845;SDS011;8539;53.188;8.696;2024-02-14T04:09:26;19.05;;;12.85;;
16845;SDS011;8539;53.188;8.696;2024-02-14T04:18:09;17.08;;;13.40;;
16845;SDS011;8539;53.188;8.696;2024-02-14T04:20:51;22.05;;;13.52;;
16845;SDS011;8539;53.188;8.696;2024-02-14T04:23:33;22.25;;;14.98;;
16845;SDS011;8539;53.188;8.696;2024-02-14T04:26:00;20.17;;;12.95;;
16845;SDS011;8539;53.188;8.696;2024-02-14T04:28:27;18.98;;;14.07;;
16845;SDS011;8539;53.188;8.696;2024-02-14T04:30:59;23.42;;;13.43;;
16845;SDS011;8539;53.188;8.696;2024-02-14T04:33:26;22.25;;;15.10;;
16845;SDS011;8539;53.188;8.696;2024-02-14T04:36:14;20.73;;;15.65;;
16845;SDS011;8539;53.188;8.696;2024-02-14T04:38:51;21.55;;;14.02;;
16845;SDS011;8539;53.188;8.696;2024-02-14T04:41:18;25.40;;;15.93;;
16845;SDS011;8539;53.188;8.696;2024-02-14T04:43:46;20.73;;;15.95;;
16845;SDS011;8539;53.188;8.696;2024-02-14T04:46:16;26.27;;;18.50;;
16845;SDS011;8539;53.188;8.696;2024-02-14T04:48:43;23.88;;;18.05;;
16845;SDS011;8539;53.188;8.696;2024-02-14T04:51:11;28.85;;;19.33;;
16845;SDS011;8539;53.188;8.696;2024-02-14T04:53:39;24.55;;;17.95;;
16845;SDS011;8539;53.188;8.696;2024-02-14T04:56:06;29.98;;;19.80;;
16845;SDS011;8539;53.188;8.696;2024-02-14T04:58:36;29.42;;;20.88;;
16845;SDS011;8539;53.188;8.696;2024-02-14T05:01:03;33.95;;;22.90;;
16845;SDS011;8539;53.188;8.696;2024-02-14T05:03:31;26.20;;;20.77;;
16845;SDS011;8539;53.188;8.696;2024-02-14T05:06:04;24.13;;;19.38;;
16845;SDS011;8539;53.188;8.696;2024-02-14T05:08:32;26.83;;;19.40;;
16845;SDS011;8539;53.188;8.696;2024-02-14T05:11:01;22.65;;;17.05;;
16845;SDS011;8539;53.188;8.696;2024-02-14T05:13:30;20.90;;;16.02;;
16845;SDS011;8539;53.188;8.696;2024-02-14T05:15:57;23.92;;;16.23;;
16845;SDS011;8539;53.188;8.696;2024-02-14T05:18:24;22.70;;;16.75;;
16845;SDS011;8539;53.188;8.696;2024-02-14T05:20:52;22.45;;;16.92;;
16845;SDS011;8539;53.188;8.696;2024-02-14T05:23:19;21.02;;;15.85;;
16845;SDS011;8539;53.188;8.696;2024-02-14T05:25:46;22.85;;;16.30;;
16845;SDS011;8539;53.188;8.696;2024-02-14T05:28:14;20.50;;;15.13;;
16845;SDS011;8539;53.188;8.696;2024-02-14T05:30:42;19.45;;;15.50;;
16845;SDS011;8539;53.188;8.696;2024-02-14T05:33:09;24.20;;;14.80;;
16845;SDS011;8539;53.188;8.696;2024-02-14T05:35:37;17.77;;;15.45;;
16845;SDS011;8539;53.188;8.696;2024-02-14T05:38:04;21.45;;;16.02;;
16845;SDS011;8539;53.188;8.696;2024-02-14T05:40:34;22.85;;;14.73;;
16845;SDS011;8539;53.188;8.696;2024-02-14T05:43:04;21.30;;;14.80;;
16845;SDS011;8539;53.188;8.696;2024-02-14T05:45:31;21.73;;;16.33;;
16845;SDS011;8539;53.188;8.696;2024-02-14T05:47:58;28.35;;;16.65;;
16845;SDS011;8539;53.188;8.696;2024-02-14T05:50:26;20.13;;;15.48;;
16845;SDS011;8539;53.188;8.696;2024-02-14T05:52:53;20.92;;;15.98;;
16845;SDS011;8539;53.188;8.696;2024-02-14T05:55:20;21.60;;;16.10;;
16845;SDS011;8539;53.188;8.696;2024-02-14T05:57:47;18.92;;;15.05;;
16845;SDS011;8539;53.188;8.696;2024-02-14T06:00:15;22.40;;;15.65;;
16845;SDS011;8539;53.188;8.696;2024-02-14T06:02:44;23.10;;;14.93;;
16845;SDS011;8539;53.188;8.696;2024-02-14T06:05:11;21.98;;;16.20;;
16845;SDS011;8539;53.188;8.696;2024-02-14T06:07:39;18.77;;;15.02;;
16845;SDS011;8539;53.188;8.696;2024-02-14T06:10:07;21.70;;;15.35;;
16845;SDS011;8539;53.188;8.696;2024-02-14T06:12:35;19.48;;;15.43;;
16845;SDS011;8539;53.188;8.696;2024-02-14T06:15:02;22.90;;;14.80;;
16845;SDS011;8539;53.188;8.696;2024-02-14T06:17:30;20.92;;;15.18;;
16845;SDS011;8539;53.188;8.696;2024-02-14T06:19:57;21.35;;;15.02;;
16845;SDS011;8539;53.188;8.696;2024-02-14T06:22:25;18.35;;;14.35;;
16845;SDS011;8539;53.188;8.696;2024-02-14T06:24:52;22.45;;;14.57;;
16845;SDS011;8539;53.188;8.696;2024-02-14T06:27:19;19.45;;;15.00;;
16845;SDS011;8539;53.188;8.696;2024-02-14T06:29:48;20.70;;;15.52;;
16845;SDS011;8539;53.188;8.696;2024-02-14T06:32:15;18.50;;;14.30;;
16845;SDS011;8539;53.188;8.696;2024-02-14T06:34:42;16.83;;;13.57;;
16845;SDS011;8539;53.188;8.696;2024-02-14T06:37:10;18.13;;;15.13;;
16845;SDS011;8539;53.188;8.696;2024-02-14T06:39:37;17.88;;;14.45;;
16845;SDS011;8539;53.188;8.696;2024-02-14T06:42:05;19.92;;;16.23;;
16845;SDS011;8539;53.188;8.696;2024-02-14T06:44:32;19.38;;;15.13;;
16845;SDS011;8539;53.188;8.696;2024-02-14T06:47:01;19.30;;;15.25;;
16845;SDS011;8539;53.188;8.696;2024-02-14T06:49:29;18.98;;;16.42;;
16845;SDS011;8539;53.188;8.696;2024-02-14T06:51:56;17.75;;;15.20;;
16845;SDS011;8539;53.188;8.696;2024-02-14T06:54:23;17.95;;;15.10;;
16845;SDS011;8539;53.188;8.696;2024-02-14T06:56:50;18.52;;;14.70;;
16845;SDS011;8539;53.188;8.696;2024-02-14T06:59:17;17.95;;;15.02;;
16845;SDS011;8539;53.188;8.696;2024-02-14T07:01:45;18.50;;;14.68;;
16845;SDS011;8539;53.188;8.696;2024-02-14T07:04:12;17.98;;;14.40;;
16845;SDS011;8539;53.188;8.696;2024-02-14T07:06:40;19.67;;;14.68;;
16845;SDS011;8539;53.188;8.696;2024-02-14T07:09:07;20.17;;;14.40;;
16845;SDS011;8539;53.188;8.696;2024-02-14T07:11:36;17.17;;;13.93;;
16845;SDS011;8539;53.188;8.696;2024-02-14T07:14:04;17.45;;;14.75;;
16845;SDS011;8539;53.188;8.696;2024-02-14T07:16:31;18.88;;;14.80;;
16845;SDS011;8539;53.188;8.696;2024-02-14T07:18:59;16.30;;;13.43;;
16845;SDS011;8539;53.188;8.696;2024-02-14T07:21:26;18.23;;;14.52;;
16845;SDS011;8539;53.188;8.696;2024-02-14T07:23:53;16.40;;;13.25;;
16845;SDS011;8539;53.188;8.696;2024-02-14T07:26:20;14.75;;;13.05;;
16845;SDS011;8539;53.188;8.696;2024-02-14T07:28:47;16.58;;;13.52;;
16845;SDS011;8539;53.188;8.696;2024-02-14T07:31:14;14.40;;;12.10;;
16845;SDS011;8539;53.188;8.696;2024-02-14T07:33:41;15.68;;;12.45;;
16845;SDS011;8539;53.188;8.696;2024-02-14T07:36:10;15.27;;;12.00;;
16845;SDS011;8539;53.188;8.696;2024-02-14T07:38:38;13.43;;;12.00;;
16845;SDS011;8539;53.188;8.696;2024-02-14T07:41:05;13.70;;;11.18;;
16845;SDS011;8539;53.188;8.696;2024-02-14T07:43:32;15.23;;;12.13;;
16845;SDS011;8539;53.188;8.696;2024-02-14T07:45:59;13.35;;;11.80;;
16845;SDS011;8539;53.188;8.696;2024-02-14T07:48:26;14.43;;;11.65;;
16845;SDS011;8539;53.188;8.696;2024-02-14T07:50:54;15.90;;;12.27;;
16845;SDS011;8539;53.188;8.696;2024-02-14T07:53:22;14.48;;;11.88;;
16845;SDS011;8539;53.188;8.696;2024-02-14T07:55:49;13.80;;;11.65;;
16845;SDS011;8539;53.188;8.696;2024-02-14T07:58:16;14.52;;;11.88;;
16845;SDS011;8539;53.188;8.696;2024-02-14T08:00:43;12.82;;;10.82;;
16845;SDS011;8539;53.188;8.696;2024-02-14T08:03:11;13.20;;;11.02;;
16845;SDS011;8539;53.188;8.696;2024-02-14T08:05:38;13.27;;;10.85;;
16845;SDS011;8539;53.188;8.696;2024-02-14T08:08:05;13.73;;;12.13;;
16845;SDS011;8539;53.188;8.696;2024-02-14T08:10:32;13.00;;;11.50;;
16845;SDS011;8539;53.188;8.696;2024-02-14T08:12:59;13.95;;;11.48;;
16845;SDS011;8539;53.188;8.696;2024-02-14T08:15:27;13.60;;;11.75;;
16845;SDS011;8539;53.188;8.696;2024-02-14T08:17:54;12.35;;;10.82;;
16845;SDS011;8539;53.188;8.696;2024-02-14T08:20:27;12.10;;;10.15;;
16845;SDS011;8539;53.188;8.696;2024-02-14T08:22:54;12.07;;;10.80;;
16845;SDS011;8539;53.188;8.696;2024-02-14T08:25:22;13.75;;;11.07;;
16845;SDS011;8539;53.188;8.696;2024-02-14T08:27:49;12.27;;;9.60;;
16845;SDS011;8539;53.188;8.696;2024-02-14T08:30:17;11.00;;;9.35;;
16845;SDS011;8539;53.188;8.696;2024-02-14T08:32:46;9.35;;;8.32;;
16845;SDS011;8539;53.188;8.696;2024-02-14T08:35:14;12.52;;;10.43;;
16845;SDS011;8539;53.188;8.696;2024-02-14T08:37:41;12.77;;;9.07;;
16845;SDS011;8539;53.188;8.696;2024-02-14T08:40:09;10.32;;;7.93;;
16845;SDS011;8539;53.188;8.696;2024-02-14T08:42:39;8.75;;;7.50;;
16845;SDS011;8539;53.188;8.696;2024-02-14T08:45:06;8.35;;;7.07;;
16845;SDS011;8539;53.188;8.696;2024-02-14T08:47:35;9.90;;;8.07;;
16845;SDS011;8539;53.188;8.696;2024-02-14T08:50:03;8.23;;;7.20;;
16845;SDS011;8539;53.188;8.696;2024-02-14T08:52:31;7.82;;;5.60;;
16845;SDS011;8539;53.188;8.696;2024-02-14T08:54:59;8.30;;;6.68;;
16845;SDS011;8539;53.188;8.696;2024-02-14T08:57:26;8.25;;;6.03;;
16845;SDS011;8539;53.188;8.696;2024-02-14T08:59:53;5.95;;;5.13;;
16845;SDS011;8539;53.188;8.696;2024-02-14T09:02:21;6.40;;;5.57;;
16845;SDS011;8539;53.188;8.696;2024-02-14T09:04:49;6.30;;;5.47;;
16845;SDS011;8539;53.188;8.696;2024-02-14T09:07:17;5.82;;;5.22;;
16845;SDS011;8539;53.188;8.696;2024-02-14T09:09:48;6.35;;;5.47;;
16845;SDS011;8539;53.188;8.696;2024-02-14T09:12:18;5.93;;;5.03;;
16845;SDS011;8539;53.188;8.696;2024-02-14T09:14:45;6.85;;;5.72;;
16845;SDS011;8539;53.188;8.696;2024-02-14T09:17:12;8.25;;;6.35;;
16845;SDS011;8539;53.188;8.696;2024-02-14T09:19:39;7.85;;;5.72;;
16845;SDS011;8539;53.188;8.696;2024-02-14T09:22:07;7.00;;;5.32;;
16845;SDS011;8539;53.188;8.696;2024-02-14T09:24:39;7.70;;;6.53;;
16845;SDS011;8539;53.188;8.696;2024-02-14T09:27:06;6.65;;;5.47;;
16845;SDS011;8539;53.188;8.696;2024-02-14T09:29:34;9.35;;;6.25;;
16845;SDS011;8539;53.188;8.696;2024-02-14T09:32:06;10.55;;;6.00;;
16845;SDS011;8539;53.188;8.696;2024-02-14T09:34:34;7.90;;;5.85;;
16845;SDS011;8539;53.188;8.696;2024-02-14T09:37:01;7.75;;;6.50;;
16845;SDS011;8539;53.188;8.696;2024-02-14T09:39:29;9.15;;;5.97;;
16845;SDS011;8539;53.188;8.696;2024-02-14T09:41:58;8.48;;;6.18;;
16845;SDS011;8539;53.188;8.696;2024-02-14T09:44:31;9.60;;;6.75;;
16845;SDS011;8539;53.188;8.696;2024-02-14T09:47:00;8.57;;;6.13;;
16845;SDS011;8539;53.188;8.696;2024-02-14T09:49:31;10.00;;;6.68;;
16845;SDS011;8539;53.188;8.696;2024-02-14T09:52:01;9.10;;;7.47;;
16845;SDS011;8539;53.188;8.696;2024-02-14T09:54:30;10.10;;;7.65;;
16845;SDS011;8539;53.188;8.696;2024-02-14T09:57:01;9.45;;;7.22;;
16845;SDS011;8539;53.188;8.696;2024-02-14T09:59:29;14.60;;;7.65;;
16845;SDS011;8539;53.188;8.696;2024-02-14T10:01:59;10.05;;;8.27;;
16845;SDS011;8539;53.188;8.696;2024-02-14T10:10:59;13.73;;;8.55;;
16845;SDS011;8539;53.188;8.696;2024-02-14T10:13:27;12.15;;;9.25;;
16845;SDS011;8539;53.188;8.696;2024-02-14T10:15:58;13.40;;;9.63;;
16845;SDS011;8539;53.188;8.696;2024-02-14T10:18:25;16.88;;;10.43;;
16845;SDS011;8539;53.188;8.696;2024-02-14T10:20:55;13.52;;;9.35;;
16845;SDS011;8539;53.188;8.696;2024-02-14T10:23:24;13.40;;;10.07;;
16845;SDS011;8539;53.188;8.696;2024-02-14T10:25:53;12.48;;;9.82;;
16845;SDS011;8539;53.188;8.696;2024-02-14T10:28:22;14.98;;;9.98;;
16845;SDS011;8539;53.188;8.696;2024-02-14T10:31:02;12.85;;;9.35;;
16845;SDS011;8539;53.188;8.696;2024-02-14T10:33:32;12.82;;;9.30;;
16845;SDS011;8539;53.188;8.696;2024-02-14T10:35:59;10.70;;;8.63;;
16845;SDS011;8539;53.188;8.696;2024-02-14T10:38:31;13.32;;;9.82;;
16845;SDS011;8539;53.188;8.696;2024-02-14T10:43:33;11.57;;;8.63;;
16845;SDS011;8539;53.188;8.696;2024-02-14T10:46:03;13.73;;;9.60;;
16845;SDS011;8539;53.188;8.696;2024-02-14T10:48:37;11.13;;;8.88;;
16845;SDS011;8539;53.188;8.696;2024-02-14T10:51:06;15.07;;;9.73;;
16845;SDS011;8539;53.188;8.696;2024-02-14T10:53:36;12.63;;;10.20;;
16845;SDS011;8539;53.188;8.696;2024-02-14T10:56:17;10.73;;;8.13;;
16845;SDS011;8539;53.188;8.696;2024-02-14T10:58:48;11.95;;;8.82;;
16845;SDS011;8539;53.188;8.696;2024-02-14T11:01:19;12.52;;;9.45;;
16845;SDS011;8539;53.188;8.696;2024-02-14T11:03:47;12.55;;;9.35;;
16845;SDS011;8539;53.188;8.696;2024-02-14T11:06:18;13.07;;;9.25;;
16845;SDS011;8539;53.188;8.696;2024-02-14T11:09:00;12.15;;;9.48;;
16845;SDS011;8539;53.188;8.696;2024-02-14T11:11:32;14.05;;;9.23;;
16845;SDS011;8539;53.188;8.696;2024-02-14T11:14:00;12.15;;;9.68;;
16845;SDS011;8539;53.188;8.696;2024-02-14T11:16:28;14.50;;;10.70;;
16845;SDS011;8539;53.188;8.696;2024-02-14T11:19:11;15.75;;;11.65;;
16845;SDS011;8539;53.188;8.696;2024-02-14T11:21:40;15.63;;;12.57;;
16845;SDS011;8539;53.188;8.696;2024-02-14T11:24:10;18.10;;;14.15;;
16845;SDS011;8539;53.188;8.696;2024-02-14T11:26:39;18.33;;;14.77;;
16845;SDS011;8539;53.188;8.696;2024-02-14T11:29:13;18.13;;;14.15;;
16845;SDS011;8539;53.188;8.696;2024-02-14T11:31:46;19.98;;;16.23;;
16845;SDS011;8539;53.188;8.696;2024-02-14T11:34:17;23.02;;;15.85;;
16845;SDS011;8539;53.188;8.696;2024-02-14T11:36:44;19.92;;;15.68;;
16845;SDS011;8539;53.188;8.696;2024-02-14T11:39:12;18.42;;;15.30;;
16845;SDS011;8539;53.188;8.696;2024-02-14T11:41:39;22.50;;;15.13;;
16845;SDS011;8539;53.188;8.696;2024-02-14T11:44:08;18.70;;;15.30;;
16845;SDS011;8539;53.188;8.696;2024-02-14T11:46:36;21.00;;;15.95;;
16845;SDS011;8539;53.188;8.696;2024-02-14T11:49:05;17.33;;;14.30;;
16845;SDS011;8539;53.188;8.696;2024-02-14T11:51:33;16.70;;;13.27;;
16845;SDS011;8539;53.188;8.696;2024-02-14T11:54:02;17.55;;;12.82;;
16845;SDS011;8539;53.188;8.696;2024-02-14T11:56:35;13.38;;;11.50;;
16845;SDS011;8539;53.188;8.696;2024-02-14T11:59:03;13.43;;;10.75;;
16845;SDS011;8539;53.188;8.696;2024-02-14T12:01:36;12.35;;;10.68;;
16845;SDS011;8539;53.188;8.696;2024-02-14T12:04:06;16.30;;;11.18;;
16845;SDS011;8539;53.188;8.696;2024-02-14T12:06:38;12.35;;;10.55;;
16845;SDS011;8539;53.188;8.696;2024-02-14T12:09:08;12.75;;;10.40;;
16845;SDS011;8539;53.188;8.696;2024-02-14T12:11:36;12.07;;;10.27;;
16845;SDS011;8539;53.188;8.696;2024-02-14T12:14:10;14.30;;;11.27;;
16845;SDS011;8539;53.188;8.696;2024-02-14T12:16:38;12.90;;;10.80;;
16845;SDS011;8539;53.188;8.696;2024-02-14T12:19:09;14.20;;;11.27;;
16845;SDS011;8539;53.188;8.696;2024-02-14T12:21:43;13.82;;;12.05;;
16845;SDS011;8539;53.188;8.696;2024-02-14T12:24:11;14.27;;;11.43;;
16845;SDS011;8539;53.188;8.696;2024-02-14T12:26:42;13.45;;;10.20;;
16845;SDS011;8539;53.188;8.696;2024-02-14T12:29:13;14.05;;;11.05;;
16845;SDS011;8539;53.188;8.696;2024-02-14T12:31:40;13.43;;;10.77;;
16845;SDS011;8539;53.188;8.696;2024-02-14T12:34:10;13.73;;;10.77;;
16845;SDS011;8539;53.188;8.696;2024-02-14T12:36:38;15.65;;;11.10;;
16845;SDS011;8539;53.188;8.696;2024-02-14T12:39:06;13.18;;;10.52;;
16845;SDS011;8539;53.188;8.696;2024-02-14T12:41:36;16.13;;;11.38;;
16845;SDS011;8539;53.188;8.696;2024-02-14T12:44:06;14.25;;;11.07;;
16845;SDS011;8539;53.188;8.696;2024-02-14T12:46:33;17.15;;;13.48;;
16845;SDS011;8539;53.188;8.696;2024-02-14T12:49:00;15.02;;;12.80;;
16845;SDS011;8539;53.188;8.696;2024-02-14T12:51:28;18.30;;;13.93;;
16845;SDS011;8539;53.188;8.696;2024-02-14T12:53:56;19.20;;;13.25;;
16845;SDS011;8539;53.188;8.696;2024-02-14T12:56:23;16.80;;;14.90;;
16845;SDS011;8539;53.188;8.696;2024-02-14T12:58:51;15.90;;;13.73;;
16845;SDS011;8539;53.188;8.696;2024-02-14T13:01:18;16.85;;;14.60;;
16845;SDS011;8539;53.188;8.696;2024-02-14T13:03:46;17.85;;;14.63;;
16845;SDS011;8539;53.188;8.696;2024-02-14T13:06:13;19.17;;;14.85;;
16845;SDS011;8539;53.188;8.696;2024-02-14T13:08:41;17.73;;;14.00;;
16845;SDS011;8539;53.188;8.696;2024-02-14T13:11:08;15.23;;;12.60;;
16845;SDS011;8539;53.188;8.696;2024-02-14T13:13:36;21.33;;;13.95;;
16845;SDS011;8539;53.188;8.696;2024-02-14T13:16:03;16.73;;;13.18;;
16845;SDS011;8539;53.188;8.696;2024-02-14T13:18:33;15.88;;;13.30;;
16845;SDS011;8539;53.188;8.696;2024-02-14T13:21:02;13.95;;;11.48;;
16845;SDS011;8539;53.188;8.696;2024-02-14T13:23:30;14.55;;;12.10;;
16845;SDS011;8539;53.188;8.696;2024-02-14T13:25:57;16.73;;;12.80;;
16845;SDS011;8539;53.188;8.696;2024-02-14T13:28:25;15.85;;;11.80;;
16845;SDS011;8539;53.188;8.696;2024-02-14T13:30:52;16.63;;;12.60;;
16845;SDS011;8539;53.188;8.696;2024-02-14T13:33:22;14.20;;;11.77;;
16845;SDS011;8539;53.188;8.696;2024-02-14T13:35:51;16.77;;;12.02;;
16845;SDS011;8539;53.188;8.696;2024-02-14T13:38:20;14.27;;;12.00;;
16845;SDS011;8539;53.188;8.696;2024-02-14T13:40:57;18.40;;;14.48;;
16845;SDS011;8539;53.188;8.696;2024-02-14T13:43:40;15.87;;;12.73;;
16845;SDS011;8539;53.188;8.696;2024-02-14T13:46:08;17.58;;;12.20;;
16845;SDS011;8539;53.188;8.696;2024-02-14T13:48:41;17.53;;;13.73;;
16845;SDS011;8539;53.188;8.696;2024-02-14T13:51:09;18.42;;;12.93;;
16845;SDS011;8539;53.188;8.696;2024-02-14T13:53:41;16.52;;;13.30;;
16845;SDS011;8539;53.188;8.696;2024-02-14T13:56:17;18.98;;;13.20;;
16845;SDS011;8539;53.188;8.696;2024-02-14T13:58:51;18.40;;;14.68;;
16845;SDS011;8539;53.188;8.696;2024-02-14T14:01:18;20.52;;;14.82;;
16845;SDS011;8539;53.188;8.696;2024-02-14T14:03:46;18.75;;;15.10;;
16845;SDS011;8539;53.188;8.696;2024-02-14T14:06:21;20.35;;;14.75;;
16845;SDS011;8539;53.188;8.696;2024-02-14T14:08:50;21.50;;;16.05;;
16845;SDS011;8539;53.188;8.696;2024-02-14T14:11:18;20.10;;;13.65;;
16845;SDS011;8539;53.188;8.696;2024-02-14T14:13:49;20.98;;;14.02;;
16845;SDS011;8539;53.188;8.696;2024-02-14T14:16:17;18.17;;;15.25;;
16845;SDS011;8539;53.188;8.696;2024-02-14T14:18:44;16.90;;;13.30;;
16845;SDS011;8539;53.188;8.696;2024-02-14T14:21:12;16.83;;;13.43;;
16845;SDS011;8539;53.188;8.696;2024-02-14T14:23:39;16.85;;;13.18;;
16845;SDS011;8539;53.188;8.696;2024-02-14T14:26:08;15.85;;;14.15;;
16845;SDS011;8539;53.188;8.696;2024-02-14T14:28:42;19.05;;;13.70;;
16845;SDS011;8539;53.188;8.696;2024-02-14T14:31:16;18.20;;;14.93;;
16845;SDS011;8539;53.188;8.696;2024-02-14T14:33:49;19.55;;;16.67;;
16845;SDS011;8539;53.188;8.696;2024-02-14T14:36:30;20.48;;;16.45;;
16845;SDS011;8539;53.188;8.696;2024-02-14T14:39:04;18.27;;;15.13;;
16845;SDS011;8539;53.188;8.696;2024-02-14T14:41:31;18.20;;;14.57;;
16845;SDS011;8539;53.188;8.696;2024-02-14T14:43:59;17.42;;;14.88;;
16845;SDS011;8539;53.188;8.696;2024-02-14T14:46:26;18.70;;;15.30;;
16845;SDS011;8539;53.188;8.696;2024-02-14T14:48:53;16.73;;;12.63;;
16845;SDS011;8539;53.188;8.696;2024-02-14T14:51:20;15.75;;;13.05;;
16845;SDS011;8539;53.188;8.696;2024-02-14T14:53:48;17.35;;;14.00;;
16845;SDS011;8539;53.188;8.696;2024-02-14T14:56:16;14.43;;;12.13;;
16845;SDS011;8539;53.188;8.696;2024-02-14T14:58:43;17.35;;;12.68;;
16845;SDS011;8539;53.188;8.696;2024-02-14T15:01:10;16.20;;;12.23;;
16845;SDS011;8539;53.188;8.696;2024-02-14T15:03:39;13.50;;;11.57;;
16845;SDS011;8539;53.188;8.696;2024-02-14T15:06:06;16.75;;;12.75;;
16845;SDS011;8539;53.188;8.696;2024-02-14T15:08:34;19.65;;;13.45;;
16845;SDS011;8539;53.188;8.696;2024-02-14T15:11:01;15.15;;;12.70;;
16845;SDS011;8539;53.188;8.696;2024-02-14T15:13:29;14.65;;;12.35;;
16845;SDS011;8539;53.188;8.696;2024-02-14T15:16:00;14.77;;;11.23;;
16845;SDS011;8539;53.188;8.696;2024-02-14T15:18:29;10.98;;;9.52;;
16845;SDS011;8539;53.188;8.696;2024-02-14T15:20:56;12.80;;;10.73;;
16845;SDS011;8539;53.188;8.696;2024-02-14T15:23:24;13.43;;;10.57;;
16845;SDS011;8539;53.188;8.696;2024-02-14T15:25:51;14.93;;;11.75;;
16845;SDS011;8539;53.188;8.696;2024-02-14T15:28:18;13.55;;;10.35;;